createdAt,value
2017-07-06T00:00:35.379Z,7.17
2017-07-06T00:03:03.675Z,8.27
2017-07-06T00:05:32.007Z,7.60
2017-07-06T00:08:01.097Z,7.27
2017-07-06T00:10:29.398Z,6.30
2017-07-06T00:12:57.737Z,6.73
2017-07-06T00:15:26.801Z,7.27
2017-07-06T00:17:55.102Z,7.20
2017-07-06T00:20:23.430Z,7.30
2017-07-06T00:22:51.729Z,7.40
2017-07-06T00:25:20.059Z,6.83
2017-07-06T00:27:49.126Z,7.10
2017-07-06T00:30:17.477Z,7.80
2017-07-06T00:32:46.545Z,7.43
2017-07-06T00:35:14.843Z,7.80
2017-07-06T00:37:43.167Z,7.47
2017-07-06T00:40:11.463Z,7.87
2017-07-06T00:42:39.794Z,7.77
2017-07-06T00:45:08.117Z,6.63
2017-07-06T00:47:36.420Z,7.43
2017-07-06T00:50:04.759Z,7.80
2017-07-06T00:52:33.061Z,7.40
2017-07-06T00:55:01.394Z,8.07
2017-07-06T00:57:29.695Z,7.20
2017-07-06T00:59:57.997Z,7.77
2017-07-06T01:02:26.330Z,6.57
2017-07-06T01:04:55.399Z,7.77
2017-07-06T01:07:23.743Z,7.87
2017-07-06T01:09:52.814Z,7.60
2017-07-06T01:12:21.111Z,7.47
2017-07-06T01:14:49.462Z,7.50
2017-07-06T01:17:18.542Z,7.60
2017-07-06T01:19:46.869Z,8.10
2017-07-06T01:22:15.173Z,8.67
2017-07-06T01:24:43.537Z,7.47
2017-07-06T01:27:11.837Z,7.90
2017-07-06T01:29:40.142Z,9.57
2017-07-06T01:32:08.479Z,8.30
2017-07-06T01:34:36.811Z,7.93
2017-07-06T01:37:05.109Z,8.43
2017-07-06T01:39:35.058Z,8.90
2017-07-06T01:42:03.406Z,9.00
2017-07-06T01:44:31.702Z,8.40
2017-07-06T01:47:00.011Z,8.23
2017-07-06T01:49:28.344Z,8.33
2017-07-06T01:51:56.661Z,8.93
2017-07-06T01:54:25.002Z,7.93
2017-07-06T01:56:54.065Z,9.77
2017-07-06T01:59:22.361Z,9.53
2017-07-06T02:01:50.729Z,9.03
2017-07-06T02:04:19.794Z,9.63
2017-07-06T02:06:48.092Z,10.00
2017-07-06T02:09:16.458Z,10.03
2017-07-06T02:11:44.762Z,9.40
2017-07-06T02:14:13.062Z,9.63
2017-07-06T02:16:41.404Z,8.33
2017-07-06T02:19:09.711Z,10.43
2017-07-06T02:21:38.021Z,8.33
2017-07-06T02:24:06.355Z,8.47
2017-07-06T02:26:35.472Z,10.20
2017-07-06T02:29:03.781Z,9.60
2017-07-06T02:31:32.099Z,9.97
2017-07-06T02:34:00.437Z,9.10
2017-07-06T02:36:28.739Z,10.00
2017-07-06T02:38:57.046Z,9.80
2017-07-06T02:41:25.420Z,8.83
2017-07-06T02:43:53.722Z,9.53
2017-07-06T02:46:22.025Z,9.17
2017-07-06T02:48:50.375Z,10.23
2017-07-06T02:51:18.749Z,9.80
2017-07-06T02:53:47.051Z,9.50
2017-07-06T02:56:15.407Z,8.90
2017-07-06T02:58:43.770Z,9.97
2017-07-06T03:01:12.086Z,9.40
2017-07-06T03:03:40.417Z,9.57
2017-07-06T03:06:08.729Z,10.90
2017-07-06T03:08:37.064Z,10.80
2017-07-06T03:11:05.394Z,10.57
2017-07-06T03:13:33.725Z,8.80
2017-07-06T03:16:02.030Z,9.10
2017-07-06T03:18:30.410Z,10.17
2017-07-06T03:20:58.717Z,9.33
2017-07-06T03:23:27.017Z,9.23
2017-07-06T03:25:55.376Z,9.67
2017-07-06T03:28:24.442Z,10.27
2017-07-06T03:30:52.746Z,9.50
2017-07-06T03:33:21.086Z,9.57
2017-07-06T03:35:49.386Z,11.20
2017-07-06T03:38:17.730Z,10.33
2017-07-06T03:40:46.038Z,10.80
2017-07-06T03:43:14.339Z,10.77
2017-07-06T03:45:42.670Z,11.27
2017-07-06T03:48:11.002Z,12.27
2017-07-06T03:50:40.097Z,10.23
2017-07-06T03:53:08.414Z,10.47
2017-07-06T03:55:36.759Z,10.80
2017-07-06T03:58:05.097Z,11.43
2017-07-06T04:00:33.396Z,11.13
2017-07-06T04:03:01.763Z,10.90
2017-07-06T04:05:30.836Z,10.77
2017-07-06T04:07:59.137Z,12.07
2017-07-06T04:10:27.490Z,11.37
2017-07-06T04:12:56.561Z,11.97
2017-07-06T04:15:24.862Z,9.30
2017-07-06T04:17:53.196Z,11.10
2017-07-06T04:20:21.527Z,10.00
2017-07-06T04:22:49.858Z,10.60
2017-07-06T04:25:18.185Z,10.07
2017-07-06T04:27:46.483Z,9.43
2017-07-06T04:30:14.828Z,11.77
2017-07-06T04:32:43.157Z,10.77
2017-07-06T04:35:11.458Z,12.63
2017-07-06T04:37:39.838Z,11.57
2017-07-06T04:40:08.150Z,12.43
2017-07-06T04:42:36.469Z,12.80
2017-07-06T04:45:04.817Z,11.10
2017-07-06T04:47:33.117Z,11.37
2017-07-06T04:50:01.424Z,11.50
2017-07-06T04:52:29.770Z,12.87
2017-07-06T04:54:58.097Z,12.67
2017-07-06T04:57:26.406Z,12.10
2017-07-06T04:59:54.751Z,11.67
2017-07-06T05:02:23.822Z,12.50
2017-07-06T05:04:52.130Z,11.77
2017-07-06T05:07:20.474Z,11.27
2017-07-06T05:09:49.540Z,9.53
2017-07-06T05:12:17.878Z,11.53
2017-07-06T05:14:46.209Z,11.97
2017-07-06T05:17:14.550Z,12.40
2017-07-06T05:19:42.864Z,12.07
2017-07-06T05:22:11.192Z,10.90
2017-07-06T05:24:40.283Z,12.20
2017-07-06T05:27:08.641Z,12.47
2017-07-06T05:29:36.941Z,11.77
2017-07-06T05:32:05.253Z,11.30
2017-07-06T05:34:33.597Z,10.43
2017-07-06T05:37:01.889Z,9.93
2017-07-06T05:39:30.219Z,8.93
2017-07-06T05:41:58.566Z,9.33
2017-07-06T05:44:26.874Z,9.03
2017-07-06T05:46:55.230Z,8.17
2017-07-06T05:49:23.526Z,7.73
2017-07-06T05:51:51.825Z,7.63
2017-07-06T05:54:20.170Z,7.97
2017-07-06T05:56:48.469Z,7.90
2017-07-06T05:59:16.870Z,7.30
2017-07-06T06:01:45.177Z,8.43
2017-07-06T06:04:13.485Z,7.90
2017-07-06T06:06:41.822Z,8.13
2017-07-06T06:09:10.185Z,8.27
2017-07-06T06:11:38.483Z,6.63
2017-07-06T06:14:07.602Z,7.57
2017-07-06T06:16:36.667Z,6.70
2017-07-06T06:19:04.978Z,6.87
2017-07-06T06:21:33.317Z,6.83
2017-07-06T06:24:01.618Z,7.30
2017-07-06T06:26:29.950Z,7.93
2017-07-06T06:28:58.258Z,7.57
2017-07-06T06:31:26.598Z,7.07
2017-07-06T06:33:54.899Z,6.60
2017-07-06T06:36:23.206Z,6.60
2017-07-06T06:38:51.553Z,5.90
2017-07-06T06:41:19.862Z,6.83
2017-07-06T06:43:48.175Z,6.90
2017-07-06T06:46:16.510Z,6.60
2017-07-06T06:48:44.813Z,6.10
2017-07-06T06:51:13.155Z,5.90
2017-07-06T06:53:42.267Z,6.00
2017-07-06T06:56:10.564Z,6.73
2017-07-06T06:58:40.001Z,6.20
2017-07-06T07:01:08.350Z,6.43
2017-07-06T07:03:36.647Z,7.00
2017-07-06T07:06:04.945Z,6.77
2017-07-06T07:08:33.273Z,6.10
2017-07-06T07:11:01.579Z,6.90
2017-07-06T07:13:29.886Z,6.10
2017-07-06T07:15:58.219Z,7.10
2017-07-06T07:18:26.562Z,6.67
2017-07-06T07:20:54.863Z,7.10
2017-07-06T07:23:23.168Z,6.07
2017-07-06T07:25:51.496Z,6.37
2017-07-06T07:28:19.799Z,6.50
2017-07-06T07:30:48.136Z,5.30
2017-07-06T07:33:16.441Z,6.13
2017-07-06T07:35:44.770Z,6.20
2017-07-06T07:38:13.061Z,5.50
2017-07-06T07:40:41.398Z,5.57
2017-07-06T07:43:09.732Z,5.50
2017-07-06T07:45:38.036Z,6.20
2017-07-06T07:48:06.339Z,5.57
2017-07-06T07:50:34.728Z,5.53
2017-07-06T07:53:03.031Z,5.67
2017-07-06T07:55:31.337Z,5.30
2017-07-06T07:57:59.669Z,5.23
2017-07-06T08:00:27.968Z,6.10
2017-07-06T08:02:56.262Z,4.67
2017-07-06T08:05:24.594Z,5.40
2017-07-06T08:07:53.663Z,5.27
2017-07-06T08:10:21.994Z,4.80
2017-07-06T08:12:50.329Z,5.00
2017-07-06T08:15:18.665Z,5.40
2017-07-06T08:17:46.996Z,4.73
2017-07-06T08:20:15.307Z,5.07
2017-07-06T08:22:43.655Z,5.20
2017-07-06T08:25:11.959Z,4.83
2017-07-06T08:27:40.278Z,5.20
2017-07-06T08:30:08.625Z,5.10
2017-07-06T08:32:36.934Z,4.73
2017-07-06T08:35:06.003Z,4.77
2017-07-06T08:37:34.366Z,4.73
2017-07-06T08:40:03.435Z,4.87
2017-07-06T08:42:31.734Z,4.30
2017-07-06T08:45:00.087Z,4.80
2017-07-06T08:47:29.199Z,5.10
2017-07-06T08:49:57.532Z,5.17
2017-07-06T08:52:25.834Z,4.60
2017-07-06T08:54:54.170Z,4.83
2017-07-06T08:57:22.509Z,4.13
2017-07-06T08:59:50.868Z,4.60
2017-07-06T09:02:19.895Z,3.83
2017-07-06T09:04:48.221Z,4.53
2017-07-06T09:07:16.565Z,4.20
2017-07-06T09:09:45.622Z,4.63
2017-07-06T09:12:13.929Z,5.00
2017-07-06T09:14:42.283Z,4.23
2017-07-06T09:17:10.581Z,4.73
2017-07-06T09:19:38.885Z,5.17
2017-07-06T09:22:07.218Z,4.40
2017-07-06T09:24:35.543Z,4.40
2017-07-06T09:27:04.639Z,4.33
2017-07-06T09:29:33.003Z,4.87
2017-07-06T09:32:01.311Z,4.90
2017-07-06T09:34:29.631Z,5.20
2017-07-06T09:36:57.966Z,4.43
2017-07-06T09:39:27.029Z,4.83
2017-07-06T09:41:55.332Z,4.60
2017-07-06T09:44:23.681Z,4.20
2017-07-06T09:46:52.752Z,4.73
2017-07-06T09:49:21.050Z,4.50
2017-07-06T09:51:49.387Z,4.77
2017-07-06T09:54:17.695Z,4.63
2017-07-06T09:56:46.002Z,4.47
2017-07-06T09:59:14.339Z,4.47
2017-07-06T10:01:43.409Z,4.93
2017-07-06T10:04:12.578Z,4.47
2017-07-06T10:06:40.877Z,4.80
2017-07-06T10:09:09.191Z,4.60
2017-07-06T10:11:38.306Z,4.60
2017-07-06T10:14:07.371Z,5.33
2017-07-06T10:16:35.671Z,4.60
2017-07-06T10:19:04.010Z,4.77
2017-07-06T10:21:32.309Z,4.60
2017-07-06T10:24:00.634Z,4.40
2017-07-06T10:26:28.959Z,4.00
2017-07-06T10:28:57.294Z,4.20
2017-07-06T10:31:25.624Z,4.37
2017-07-06T10:33:53.964Z,4.53
2017-07-06T10:36:22.262Z,4.50
2017-07-06T10:38:51.414Z,4.70
2017-07-06T10:41:19.797Z,4.17
2017-07-06T10:43:48.075Z,4.90
2017-07-06T10:46:16.435Z,4.20
2017-07-06T10:48:44.736Z,4.37
2017-07-06T10:51:13.049Z,3.83
2017-07-06T10:53:41.382Z,3.33
2017-07-06T10:56:09.703Z,4.67
2017-07-06T10:58:38.800Z,3.90
2017-07-06T11:01:07.143Z,4.97
2017-07-06T11:03:35.445Z,4.40
2017-07-06T11:06:03.747Z,4.10
2017-07-06T11:08:32.091Z,4.07
2017-07-06T11:11:00.410Z,3.90
2017-07-06T11:13:28.781Z,3.93
2017-07-06T11:15:57.077Z,4.20
2017-07-06T11:18:25.375Z,4.30
2017-07-06T11:20:53.703Z,3.20
2017-07-06T11:23:22.016Z,3.80
2017-07-06T11:25:50.358Z,3.23
2017-07-06T11:28:18.706Z,3.53
2017-07-06T11:30:47.040Z,4.70
2017-07-06T11:33:16.111Z,3.67
2017-07-06T11:35:44.485Z,3.40
2017-07-06T11:38:12.790Z,4.07
2017-07-06T11:40:41.097Z,3.47
2017-07-06T11:43:09.432Z,3.03
2017-07-06T11:45:37.729Z,3.03
2017-07-06T11:48:06.075Z,3.40
2017-07-06T11:50:34.379Z,3.37
2017-07-06T11:53:02.708Z,4.00
2017-07-06T11:55:31.021Z,3.60
2017-07-06T11:57:59.325Z,3.20
2017-07-06T12:00:27.669Z,3.10
2017-07-06T12:02:55.974Z,3.00
2017-07-06T12:05:24.274Z,2.83
2017-07-06T12:07:52.620Z,3.10
2017-07-06T12:10:20.923Z,3.13
2017-07-06T12:12:49.224Z,3.10
2017-07-06T12:15:17.641Z,3.40
2017-07-06T12:17:45.986Z,3.30
2017-07-06T12:20:14.289Z,2.83
2017-07-06T12:22:42.595Z,3.20
2017-07-06T12:25:10.953Z,3.10
2017-07-06T12:27:39.266Z,2.17
2017-07-06T12:30:07.566Z,2.53
2017-07-06T12:32:35.891Z,2.73
2017-07-06T12:35:04.214Z,2.63
2017-07-06T12:37:32.555Z,2.73
2017-07-06T12:40:00.880Z,2.70
2017-07-06T12:42:29.246Z,2.97
2017-07-06T12:44:57.613Z,2.50
2017-07-06T12:47:25.923Z,2.50
2017-07-06T12:49:54.220Z,2.70
2017-07-06T12:52:22.569Z,2.73
2017-07-06T12:54:50.881Z,3.00
2017-07-06T12:57:19.183Z,3.03
2017-07-06T12:59:47.528Z,3.43
2017-07-06T13:02:15.836Z,5.20
2017-07-06T13:04:44.136Z,3.83
2017-07-06T13:07:12.461Z,3.60
2017-07-06T13:09:40.762Z,3.53
2017-07-06T13:12:09.136Z,3.60
2017-07-06T13:14:37.459Z,3.53
2017-07-06T13:17:05.756Z,3.60
2017-07-06T13:19:34.083Z,3.03
2017-07-06T13:22:03.150Z,2.80
2017-07-06T13:24:31.490Z,2.80
2017-07-06T13:27:00.557Z,3.03
2017-07-06T13:29:29.101Z,3.60
2017-07-06T13:31:57.469Z,3.47
2017-07-06T13:34:25.762Z,2.47
2017-07-06T13:36:54.093Z,2.73
2017-07-06T13:39:22.438Z,3.20
2017-07-06T13:41:50.867Z,3.27
2017-07-06T13:44:19.219Z,3.43
2017-07-06T13:46:47.608Z,3.53
2017-07-06T13:49:15.913Z,3.73
2017-07-06T13:51:44.305Z,4.03
2017-07-06T13:54:12.602Z,3.43
2017-07-06T13:56:41.693Z,3.50
2017-07-06T13:59:10.050Z,3.33
2017-07-06T14:01:38.353Z,2.80
2017-07-06T14:04:06.645Z,3.20
2017-07-06T14:06:35.015Z,3.60
2017-07-06T14:09:03.322Z,3.00
2017-07-06T14:11:32.385Z,2.80
2017-07-06T14:14:00.774Z,2.90
2017-07-06T14:16:29.117Z,3.33
2017-07-06T14:18:57.419Z,4.93
2017-07-06T14:21:25.772Z,2.80
2017-07-06T14:23:54.074Z,3.00
2017-07-06T14:26:22.378Z,3.00
2017-07-06T14:28:51.468Z,2.70
2017-07-06T14:31:19.777Z,3.60
2017-07-06T14:33:48.107Z,2.90
2017-07-06T14:36:17.175Z,3.37
2017-07-06T14:38:45.502Z,2.80
2017-07-06T14:41:13.802Z,4.10
2017-07-06T14:43:42.154Z,3.17
2017-07-06T14:46:10.463Z,2.40
2017-07-06T14:48:38.774Z,2.30
2017-07-06T14:51:07.116Z,2.80
2017-07-06T14:53:35.430Z,2.33
2017-07-06T14:56:03.739Z,3.83
2017-07-06T14:58:32.078Z,2.90
2017-07-06T15:01:00.378Z,3.07
2017-07-06T15:03:28.713Z,2.60
2017-07-06T15:05:57.029Z,3.50
2017-07-06T15:08:25.329Z,3.77
2017-07-06T15:10:53.685Z,3.20
2017-07-06T15:13:21.981Z,3.23
2017-07-06T15:15:50.283Z,4.77
2017-07-06T15:18:18.609Z,4.90
2017-07-06T15:20:46.916Z,4.27
2017-07-06T15:23:15.265Z,3.87
2017-07-06T15:25:43.566Z,4.17
2017-07-06T15:28:11.862Z,3.50
2017-07-06T15:30:40.193Z,4.27
2017-07-06T15:33:08.494Z,3.40
2017-07-06T15:35:36.835Z,4.63
2017-07-06T15:38:05.139Z,4.60
2017-07-06T15:40:33.449Z,3.43
2017-07-06T15:43:01.772Z,3.67
2017-07-06T15:45:30.077Z,4.50
2017-07-06T15:47:58.419Z,3.90
2017-07-06T15:50:26.728Z,5.30
2017-07-06T15:52:55.802Z,5.73
2017-07-06T15:55:24.131Z,3.70
2017-07-06T15:57:52.426Z,4.40
2017-07-06T16:00:20.764Z,3.97
2017-07-06T16:02:49.847Z,3.67
2017-07-06T16:05:18.138Z,4.80
2017-07-06T16:07:46.478Z,10.73
2017-07-06T16:10:14.819Z,5.30
2017-07-06T16:12:43.930Z,4.77
2017-07-06T16:15:13.015Z,3.20
2017-07-06T16:17:41.311Z,3.80
2017-07-06T16:20:09.657Z,3.50
2017-07-06T16:22:38.721Z,2.73
2017-07-06T16:25:07.015Z,2.80
2017-07-06T16:27:35.374Z,3.20
2017-07-06T16:30:03.676Z,3.00
2017-07-06T16:32:31.981Z,4.03
2017-07-06T16:35:00.317Z,3.17
2017-07-06T16:37:28.626Z,3.90
2017-07-06T16:39:56.925Z,3.57
2017-07-06T16:42:25.254Z,3.60
2017-07-06T16:44:53.592Z,4.10
2017-07-06T16:47:21.893Z,3.70
2017-07-06T16:49:50.213Z,3.87
2017-07-06T16:52:18.558Z,4.83
2017-07-06T16:54:47.623Z,4.90
2017-07-06T16:57:15.909Z,6.60
2017-07-06T16:59:44.340Z,6.43
2017-07-06T17:02:12.639Z,7.07
2017-07-06T17:04:40.961Z,7.50
2017-07-06T17:07:09.289Z,6.90
2017-07-06T17:09:37.635Z,8.50
2017-07-06T17:12:06.000Z,7.27
2017-07-06T17:14:34.305Z,6.23
2017-07-06T17:17:02.597Z,6.27
2017-07-06T17:19:30.926Z,6.37
2017-07-06T17:21:59.226Z,6.00
2017-07-06T17:24:27.579Z,5.47
2017-07-06T17:26:56.638Z,5.23
2017-07-06T17:29:24.960Z,3.97
2017-07-06T17:31:53.306Z,3.53
2017-07-06T17:34:22.367Z,4.57
2017-07-06T17:36:50.668Z,3.40
2017-07-06T17:39:18.989Z,3.27
2017-07-06T17:41:47.289Z,3.13
2017-07-06T17:44:15.629Z,3.03
2017-07-06T17:46:44.690Z,2.73
2017-07-06T17:49:12.986Z,3.60
2017-07-06T17:51:41.313Z,2.83
2017-07-06T17:54:09.610Z,3.17
2017-07-06T17:56:37.945Z,3.10
2017-07-06T17:59:07.049Z,3.23
2017-07-06T18:01:35.350Z,3.00
2017-07-06T18:04:03.687Z,3.07
2017-07-06T18:06:31.994Z,3.00
2017-07-06T18:09:01.121Z,3.37
2017-07-06T18:11:30.184Z,3.50
2017-07-06T18:13:58.526Z,3.00
2017-07-06T18:16:26.821Z,3.10
2017-07-06T18:18:55.193Z,4.00
2017-07-06T18:21:23.574Z,3.63
2017-07-06T18:23:51.867Z,3.70
2017-07-06T18:26:20.982Z,4.27
2017-07-06T18:28:50.113Z,3.43
2017-07-06T18:31:19.190Z,4.13
2017-07-06T18:33:47.495Z,3.70
2017-07-06T18:36:15.848Z,4.07
2017-07-06T18:38:44.922Z,4.07
2017-07-06T18:41:13.217Z,5.57
2017-07-06T18:43:41.569Z,4.87
2017-07-06T18:46:09.865Z,3.97
2017-07-06T18:48:38.161Z,4.53
2017-07-06T18:51:06.499Z,4.07
2017-07-06T18:53:34.797Z,4.77
2017-07-06T18:56:03.105Z,5.07
2017-07-06T18:58:31.434Z,3.93
2017-07-06T19:00:59.751Z,4.60
2017-07-06T19:03:28.077Z,4.43
2017-07-06T19:05:56.428Z,6.20
2017-07-06T19:08:24.731Z,3.90
2017-07-06T19:10:53.029Z,3.97
2017-07-06T19:13:21.359Z,5.07
2017-07-06T19:15:49.655Z,5.07
2017-07-06T19:18:17.952Z,4.80
2017-07-06T19:20:46.281Z,4.13
2017-07-06T19:23:14.650Z,4.37
2017-07-06T19:25:42.947Z,5.43
2017-07-06T19:28:11.241Z,4.77
2017-07-06T19:30:40.340Z,5.40
2017-07-06T19:33:08.702Z,20.80
2017-07-06T19:35:36.995Z,6.57
2017-07-06T19:38:05.334Z,5.17
2017-07-06T19:40:33.638Z,4.63
2017-07-06T19:43:01.938Z,5.17
2017-07-06T19:45:30.282Z,5.77
2017-07-06T19:47:59.355Z,5.33
2017-07-06T19:50:27.655Z,4.80
2017-07-06T19:52:56.073Z,6.10
2017-07-06T19:55:24.381Z,5.77
2017-07-06T19:57:52.855Z,5.00
2017-07-06T20:00:21.152Z,5.00
2017-07-06T20:02:49.456Z,5.50
2017-07-06T20:05:17.815Z,5.30
2017-07-06T20:07:46.185Z,6.90
2017-07-06T20:10:14.478Z,4.90
2017-07-06T20:12:42.782Z,4.90
2017-07-06T20:15:11.114Z,5.20
2017-07-06T20:17:39.475Z,4.90
2017-07-06T20:20:07.818Z,5.07
2017-07-06T20:22:36.120Z,5.50
2017-07-06T20:25:04.433Z,5.53
2017-07-06T20:27:32.793Z,5.43
2017-07-06T20:30:01.186Z,5.00
2017-07-06T20:32:29.496Z,5.77
2017-07-06T20:34:57.822Z,4.83
2017-07-06T20:37:26.153Z,6.37
2017-07-06T20:39:54.446Z,5.10
2017-07-06T20:42:22.785Z,5.80
2017-07-06T20:44:51.217Z,6.20
2017-07-06T20:47:19.521Z,5.37
2017-07-06T20:49:48.216Z,6.33
2017-07-06T20:52:16.517Z,5.60
2017-07-06T20:57:23.949Z,5.97
2017-07-06T20:59:53.018Z,6.60
2017-07-06T21:02:21.357Z,6.00
2017-07-06T21:04:49.680Z,5.83
2017-07-06T21:07:18.757Z,4.80
2017-07-06T21:09:47.117Z,4.83
2017-07-06T21:12:15.457Z,4.60
2017-07-06T21:14:43.765Z,4.20
2017-07-06T21:17:12.060Z,4.50
2017-07-06T21:19:40.393Z,4.93
2017-07-06T21:22:08.713Z,4.40
2017-07-06T21:24:37.801Z,4.83
2017-07-06T21:27:06.139Z,4.07
2017-07-06T21:29:35.218Z,4.70
2017-07-06T21:32:03.515Z,4.00
2017-07-06T21:34:31.844Z,5.80
2017-07-06T21:37:00.211Z,4.93
2017-07-06T21:41:49.492Z,5.13
2017-07-06T21:44:18.552Z,6.10
2017-07-06T21:46:46.861Z,5.50
2017-07-06T21:49:15.205Z,5.40
2017-07-06T21:51:43.498Z,5.20
2017-07-06T21:54:12.511Z,5.03
2017-07-06T21:56:40.872Z,4.13
2017-07-06T21:59:09.170Z,4.80
2017-07-06T22:01:37.468Z,5.70
2017-07-06T22:04:05.818Z,4.00
2017-07-06T22:06:34.113Z,5.10
2017-07-06T22:09:02.441Z,4.00
2017-07-06T22:11:30.745Z,4.00
2017-07-06T22:13:59.073Z,4.77
2017-07-06T22:16:28.188Z,3.83
2017-07-06T22:18:57.254Z,4.47
2017-07-06T22:21:25.551Z,4.20
2017-07-06T22:23:53.882Z,4.43
2017-07-06T22:26:22.177Z,4.20
2017-07-06T22:28:50.497Z,3.60
2017-07-06T22:31:18.822Z,5.17
2017-07-06T22:33:47.889Z,6.10
2017-07-06T22:36:16.213Z,5.50
2017-07-06T22:38:44.564Z,4.97
2017-07-06T22:41:12.858Z,4.50
2017-07-06T22:43:41.918Z,4.80
2017-07-06T22:46:10.262Z,5.47
2017-07-06T22:48:38.591Z,5.37
2017-07-06T22:51:06.891Z,5.30
2017-07-06T22:53:35.225Z,5.53
2017-07-06T22:56:03.559Z,5.50
2017-07-06T22:58:31.859Z,4.90
2017-07-06T23:01:00.157Z,5.70
2017-07-06T23:03:28.482Z,4.90
2017-07-06T23:05:56.780Z,5.47
2017-07-06T23:08:25.109Z,5.13
2017-07-06T23:10:53.433Z,5.70
2017-07-06T23:13:21.767Z,5.40
2017-07-06T23:15:50.121Z,4.97
2017-07-06T23:18:19.207Z,4.90
2017-07-06T23:20:47.506Z,5.03
2017-07-06T23:23:15.832Z,5.40
2017-07-06T23:25:44.126Z,5.13
2017-07-06T23:28:12.459Z,5.90
2017-07-06T23:30:41.522Z,5.43
2017-07-06T23:33:09.822Z,5.60
2017-07-06T23:35:38.151Z,6.90
2017-07-06T23:38:06.462Z,5.77
2017-07-06T23:40:34.795Z,4.77
2017-07-06T23:43:03.897Z,4.17
2017-07-06T23:45:32.194Z,4.10
2017-07-06T23:48:00.494Z,3.37
2017-07-06T23:50:28.827Z,3.93
2017-07-06T23:52:57.887Z,3.60
2017-07-06T23:55:26.230Z,4.63
2017-07-06T23:57:54.556Z,4.13
